^^
Station Historical Data
Daily Summary for February 28, 2019 Units:  English    Metric   Both
« Previous Day
Next Day »
Daily Weekly Monthly Yearly Custom
  High: Low: Average:
Temperature: 20.7 °F -0.1 °F 9.9 °F
Dew Point: 11.7 °F -6.5 °F 3.1 °F
Humidity: 92% 65% 73%
Wind Speed: 16.0mph 0.0mph 5.8mph
Wind Gust: 18.0mph - -
Wind- - SW
Pressure: 30.23 in 30.04 in -
Precipitation: 0.00 in    
Historical Graphs
 
 
Tabular Data for February 28, 2019
Time Temperature Dew Point Pressure Wind Wind Speed Wind Gust Humidity Rainfall Rate (Hourly) solar Conditions
00:04 1.3 °F -5.1 °F 30.23 in WSW 12.0 mph 14.0 mph 74% 0.00 in 0.00 W/m2
00:09 1.3 °F -5.1 °F 30.23 in West 11.0 mph 16.0 mph 74% 0.00 in 0.00 W/m2
00:14 1.3 °F -5.1 °F 30.22 in WSW 13.0 mph 16.0 mph 74% 0.00 in 0.00 W/m2
00:19 1.1 °F -5.3 °F 30.23 in WSW 8.0 mph 15.0 mph 74% 0.00 in 0.00 W/m2
00:24 0.2 °F -6.1 °F 30.23 in WSW 11.0 mph 14.0 mph 74% 0.00 in 0.00 W/m2
00:29 0.5 °F -5.6 °F 30.22 in WSW 13.0 mph 14.0 mph 75% 0.00 in 0.00 W/m2
00:34 1.3 °F -4.8 °F 30.22 in WSW 15.0 mph 16.0 mph 75% 0.00 in 0.00 W/m2
00:39 1.9 °F -4.5 °F 30.22 in WSW 16.0 mph 18.0 mph 74% 0.00 in 0.00 W/m2
00:44 2.3 °F -4.4 °F 30.22 in WSW 13.0 mph 18.0 mph 73% 0.00 in 0.00 W/m2
00:49 2.2 °F -4.5 °F 30.22 in West 11.0 mph 16.0 mph 73% 0.00 in 0.00 W/m2
00:54 2.0 °F -4.7 °F 30.21 in West 13.0 mph 16.0 mph 73% 0.00 in 0.00 W/m2
00:59 1.9 °F -4.8 °F 30.21 in WSW 15.0 mph 16.0 mph 73% 0.00 in 0.00 W/m2
01:04 2.0 °F -4.7 °F 30.21 in West 13.0 mph 16.0 mph 73% 0.00 in 0.00 W/m2
01:09 2.4 °F -4.6 °F 30.21 in WSW 12.0 mph 16.0 mph 72% 0.00 in 0.00 W/m2
01:14 2.4 °F -4.6 °F 30.21 in West 11.0 mph 16.0 mph 72% 0.00 in 0.00 W/m2
01:19 2.4 °F -4.6 °F 30.21 in West 7.0 mph 16.0 mph 72% 0.00 in 0.00 W/m2
01:24 2.4 °F -4.6 °F 30.21 in WSW 9.0 mph 13.0 mph 72% 0.00 in 0.00 W/m2
01:29 2.9 °F -4.1 °F 30.21 in WSW 8.0 mph 12.0 mph 72% 0.00 in 0.00 W/m2
01:34 2.8 °F -4.5 °F 30.22 in WSW 12.0 mph 14.0 mph 71% 0.00 in 0.00 W/m2
01:39 2.4 °F -4.9 °F 30.21 in WSW 10.0 mph 14.0 mph 71% 0.00 in 0.00 W/m2
01:44 2.1 °F -4.9 °F 30.21 in WSW 11.0 mph 13.0 mph 72% 0.00 in 0.00 W/m2
01:49 2.2 °F -4.8 °F 30.21 in WSW 10.0 mph 13.0 mph 72% 0.00 in 0.00 W/m2
01:54 2.2 °F -4.8 °F 30.21 in SW 8.0 mph 13.0 mph 72% 0.00 in 0.00 W/m2
01:59 2.6 °F -4.1 °F 30.21 in WSW 10.0 mph 13.0 mph 73% 0.00 in 0.00 W/m2
02:04 3.1 °F -3.9 °F 30.21 in WSW 10.0 mph 14.0 mph 72% 0.00 in 0.00 W/m2
02:09 3.2 °F -3.8 °F 30.21 in WSW 7.0 mph 14.0 mph 72% 0.00 in 0.00 W/m2
02:14 2.9 °F -4.1 °F 30.21 in West 6.0 mph 13.0 mph 72% 0.00 in 0.00 W/m2
02:19 3.0 °F -4.0 °F 30.22 in West 7.0 mph 10.0 mph 72% 0.00 in 0.00 W/m2
02:24 3.4 °F -3.9 °F 30.22 in West 6.0 mph 11.0 mph 71% 0.00 in 0.00 W/m2
02:29 3.3 °F -4.0 °F 30.22 in NNW 3.0 mph 11.0 mph 71% 0.00 in 0.00 W/m2
02:34 3.3 °F -4.0 °F 30.21 in WSW 4.0 mph 7.0 mph 71% 0.00 in 0.00 W/m2
02:39 3.2 °F -4.4 °F 30.22 in West 4.0 mph 6.0 mph 70% 0.00 in 0.00 W/m2
02:44 3.0 °F -4.3 °F 30.21 in West 8.0 mph 9.0 mph 71% 0.00 in 0.00 W/m2
02:49 3.3 °F -4.0 °F 30.21 in WSW 3.0 mph 9.0 mph 71% 0.00 in 0.00 W/m2
02:54 3.1 °F -4.5 °F 30.21 in SW 1.0 mph 8.0 mph 70% 0.00 in 0.00 W/m2
02:59 2.4 °F -5.2 °F 30.21 in ESE 2.0 mph 3.0 mph 70% 0.00 in 0.00 W/m2
03:04 2.1 °F -5.2 °F 30.21 in NW 1.0 mph 3.0 mph 71% 0.00 in 0.00 W/m2
03:09 2.0 °F -5.0 °F 30.21 in Calm   3.0 mph 72% 0.00 in 0.00 W/m2
03:14 1.9 °F -4.8 °F 30.21 in Calm   2.0 mph 73% 0.00 in 0.00 W/m2
03:19 1.8 °F -4.9 °F 30.20 in Calm   2.0 mph 73% 0.00 in 0.00 W/m2
03:24 2.0 °F -4.7 °F 30.20 in WSW 3.0 mph 5.0 mph 73% 0.00 in 0.00 W/m2
03:29 2.0 °F -5.0 °F 30.20 in SW 4.0 mph 5.0 mph 72% 0.00 in 0.00 W/m2
03:34 1.9 °F -4.8 °F 30.20 in SW 4.0 mph 5.0 mph 73% 0.00 in 0.00 W/m2
03:39 2.3 °F -4.4 °F 30.20 in West 4.0 mph 5.0 mph 73% 0.00 in 0.00 W/m2
03:44 2.7 °F -4.0 °F 30.20 in WSW 4.0 mph 5.0 mph 73% 0.00 in 0.00 W/m2
03:49 2.5 °F -4.5 °F 30.19 in WSW 7.0 mph 8.0 mph 72% 0.00 in 0.00 W/m2
03:54 2.4 °F -4.6 °F 30.19 in WSW 5.0 mph 9.0 mph 72% 0.00 in 0.00 W/m2
03:59 2.1 °F -4.9 °F 30.19 in WNW 5.0 mph 9.0 mph 72% 0.00 in 0.00 W/m2
04:04 2.7 °F -4.0 °F 30.19 in West 5.0 mph 7.0 mph 73% 0.00 in 0.00 W/m2
04:09 3.1 °F -3.9 °F 30.19 in West 2.0 mph 6.0 mph 72% 0.00 in 0.00 W/m2
04:14 3.1 °F -3.9 °F 30.19 in WSW 2.0 mph 5.0 mph 72% 0.00 in 0.00 W/m2
04:19 3.1 °F -3.9 °F 30.19 in SW 4.0 mph 5.0 mph 72% 0.00 in 0.00 W/m2
04:24 2.9 °F -4.1 °F 30.19 in SW 3.0 mph 5.0 mph 72% 0.00 in 0.00 W/m2
04:29 2.7 °F -4.3 °F 30.19 in SSW 3.0 mph 5.0 mph 72% 0.00 in 0.00 W/m2
04:34 2.4 °F -4.6 °F 30.19 in SW 7.0 mph 8.0 mph 72% 0.00 in 0.00 W/m2
04:39 2.4 °F -4.3 °F 30.19 in SW 5.0 mph 8.0 mph 73% 0.00 in 0.00 W/m2
04:44 2.2 °F -4.8 °F 30.19 in WSW 7.0 mph 8.0 mph 72% 0.00 in 0.00 W/m2
04:49 1.3 °F -5.9 °F 30.19 in WSW 7.0 mph 8.0 mph 71% 0.00 in 0.00 W/m2
04:54 0.4 °F -6.5 °F 30.19 in WSW 6.0 mph 8.0 mph 72% 0.00 in 0.00 W/m2
04:59 0.1 °F -6.2 °F 30.18 in WSW 5.0 mph 8.0 mph 74% 0.00 in 0.00 W/m2
05:04 -0.1 °F -6.4 °F 30.18 in SW 8.0 mph 8.0 mph 74% 0.00 in 0.00 W/m2
05:09 0.1 °F -5.9 °F 30.18 in SW 4.0 mph 8.0 mph 75% 0.00 in 0.00 W/m2
05:14 0.5 °F -5.3 °F 30.18 in SW 5.0 mph 8.0 mph 76% 0.00 in 0.00 W/m2
05:19 1.1 °F -4.4 °F 30.18 in WSW 3.0 mph 6.0 mph 77% 0.00 in 0.00 W/m2
05:24 1.4 °F -4.4 °F 30.18 in WSW 5.0 mph 6.0 mph 76% 0.00 in 0.00 W/m2
05:29 1.6 °F -4.2 °F 30.18 in SW 6.0 mph 8.0 mph 76% 0.00 in 0.00 W/m2
05:34 1.5 °F -4.6 °F 30.18 in WSW 6.0 mph 8.0 mph 75% 0.00 in 0.00 W/m2
05:39 1.8 °F -4.0 °F 30.18 in SW 6.0 mph 7.0 mph 76% 0.00 in 0.00 W/m2
05:44 2.2 °F -3.4 °F 30.17 in SW 6.0 mph 7.0 mph 77% 0.00 in 0.00 W/m2
05:49 2.6 °F -3.0 °F 30.18 in SW 4.0 mph 8.0 mph 77% 0.00 in 0.00 W/m2
05:54 3.0 °F -2.6 °F 30.18 in SW 5.0 mph 8.0 mph 77% 0.00 in 0.00 W/m2
05:59 2.9 °F -3.0 °F 30.18 in SW 5.0 mph 7.0 mph 76% 0.00 in 0.00 W/m2
06:04 2.7 °F -3.1 °F 30.17 in SW 6.0 mph 7.0 mph 76% 0.00 in 0.00 W/m2
06:09 2.4 °F -3.4 °F 30.17 in SW 5.0 mph 7.0 mph 76% 0.00 in 0.00 W/m2
06:14 2.3 °F -3.5 °F 30.17 in SW 4.0 mph 7.0 mph 76% 0.00 in 0.00 W/m2
06:19 2.4 °F -3.2 °F 30.17 in SW 7.0 mph 7.0 mph 77% 0.00 in 0.00 W/m2
06:24 2.6 °F -3.2 °F 30.16 in SW 4.0 mph 9.0 mph 76% 0.00 in 0.00 W/m2
06:29 2.8 °F -2.8 °F 30.16 in SW 5.0 mph 9.0 mph 77% 0.00 in 0.00 W/m2
06:34 3.0 °F -2.9 °F 30.16 in SW 1.0 mph 7.0 mph 76% 0.00 in 0.00 W/m2
06:39 3.2 °F -2.7 °F 30.17 in SW 2.0 mph 6.0 mph 76% 0.00 in 0.00 W/m2
06:44 3.2 °F -2.7 °F 30.17 in WSW 2.0 mph 5.0 mph 76% 0.00 in 0.00 W/m2
06:49 3.0 °F -3.1 °F 30.16 in WSW 3.0 mph 5.0 mph 75% 0.00 in 0.00 W/m2
06:54 2.7 °F -3.4 °F 30.16 in WSW 5.0 mph 6.0 mph 75% 0.00 in 0.00 W/m2
06:59 2.3 °F -3.8 °F 30.16 in WSW 4.0 mph 6.0 mph 75% 0.00 in 0.00 W/m2
07:04 2.1 °F -4.0 °F 30.16 in WSW 4.0 mph 6.0 mph 75% 0.00 in 0.00 W/m2
07:09 1.9 °F -4.2 °F 30.16 in SW 5.0 mph 5.0 mph 75% 0.00 in 0.00 W/m2
07:14 1.7 °F -4.1 °F 30.16 in WSW 5.0 mph 6.0 mph 76% 0.00 in 5.00 W/m2
07:19 1.8 °F -4.0 °F 30.16 in WSW 5.0 mph 6.0 mph 76% 0.00 in 7.00 W/m2
07:24 1.5 °F -4.6 °F 30.15 in WSW 5.0 mph 7.0 mph 75% 0.00 in 7.00 W/m2
07:29 1.9 °F -3.7 °F 30.15 in WSW 6.0 mph 7.0 mph 77% 0.00 in 7.00 W/m2
07:34 2.4 °F -3.4 °F 30.14 in WSW 6.0 mph 7.0 mph 76% 0.00 in 12.00 W/m2
07:39 2.6 °F -3.2 °F 30.14 in WSW 6.0 mph 7.0 mph 76% 0.00 in 21.00 W/m2
07:44 3.0 °F -2.9 °F 30.14 in WSW 6.0 mph 8.0 mph 76% 0.00 in 28.00 W/m2
07:49 3.5 °F -2.4 °F 30.14 in WSW 5.0 mph 8.0 mph 76% 0.00 in 25.00 W/m2
07:54 3.6 °F -2.8 °F 30.14 in WSW 5.0 mph 7.0 mph 74% 0.00 in 28.00 W/m2
07:59 3.3 °F -3.1 °F 30.14 in WSW 4.0 mph 7.0 mph 74% 0.00 in 39.00 W/m2
08:04 3.2 °F -3.2 °F 30.14 in WSW 4.0 mph 6.0 mph 74% 0.00 in 47.00 W/m2
08:09 3.2 °F -3.2 °F 30.14 in WSW 4.0 mph 6.0 mph 74% 0.00 in 60.00 W/m2
08:14 3.3 °F -2.8 °F 30.14 in SW 2.0 mph 5.0 mph 75% 0.00 in 79.00 W/m2
08:19 3.6 °F -2.6 °F 30.14 in SW 3.0 mph 5.0 mph 75% 0.00 in 62.00 W/m2
08:24 3.7 °F -2.7 °F 30.14 in WSW 5.0 mph 5.0 mph 74% 0.00 in 47.00 W/m2
08:29 3.7 °F -2.7 °F 30.14 in WSW 4.0 mph 6.0 mph 74% 0.00 in 56.00 W/m2
08:34 3.4 °F -3.3 °F 30.15 in WSW 6.0 mph 8.0 mph 73% 0.00 in 58.00 W/m2
08:39 3.3 °F -3.1 °F 30.15 in WSW 7.0 mph 8.0 mph 74% 0.00 in 155.00 W/m2
08:44 3.5 °F -2.9 °F 30.15 in WSW 5.0 mph 8.0 mph 74% 0.00 in 172.00 W/m2
08:49 3.8 °F -2.6 °F 30.15 in WSW 7.0 mph 10.0 mph 74% 0.00 in 90.00 W/m2
08:54 4.5 °F -2.0 °F 30.15 in WSW 6.0 mph 10.0 mph 74% 0.00 in 225.00 W/m2
08:59 5.6 °F -0.9 °F 30.15 in WSW 6.0 mph 8.0 mph 74% 0.00 in 176.00 W/m2
09:04 6.1 °F -0.7 °F 30.15 in WSW 7.0 mph 8.0 mph 73% 0.00 in 253.00 W/m2
09:09 6.5 °F -0.6 °F 30.15 in SW 9.0 mph 9.0 mph 72% 0.00 in 301.00 W/m2
09:14 7.2 °F 0.1 °F 30.15 in WSW 8.0 mph 11.0 mph 72% 0.00 in 334.00 W/m2
09:19 7.8 °F 0.6 °F 30.15 in WSW 9.0 mph 11.0 mph 72% 0.00 in 334.00 W/m2
09:24 8.1 °F 0.6 °F 30.15 in WSW 9.0 mph 12.0 mph 71% 0.00 in 232.00 W/m2
09:29 8.4 °F 0.9 °F 30.15 in WSW 8.0 mph 13.0 mph 71% 0.00 in 200.00 W/m2
09:34 8.6 °F 0.8 °F 30.15 in WSW 9.0 mph 13.0 mph 70% 0.00 in 278.00 W/m2
09:39 8.8 °F 1.0 °F 30.15 in WSW 9.0 mph 14.0 mph 70% 0.00 in 262.00 W/m2
09:44 8.8 °F 0.7 °F 30.15 in WSW 10.0 mph 14.0 mph 69% 0.00 in 236.00 W/m2
09:49 8.9 °F 0.8 °F 30.15 in WSW 9.0 mph 13.0 mph 69% 0.00 in 248.00 W/m2
09:54 9.2 °F 1.1 °F 30.15 in WSW 9.0 mph 12.0 mph 69% 0.00 in 234.00 W/m2
09:59 9.3 °F 1.2 °F 30.15 in WSW 10.0 mph 12.0 mph 69% 0.00 in 244.00 W/m2
10:04 9.6 °F 1.8 °F 30.15 in WSW 9.0 mph 12.0 mph 70% 0.00 in 202.00 W/m2
10:09 9.8 °F 1.7 °F 30.14 in West 7.0 mph 13.0 mph 69% 0.00 in 336.00 W/m2
10:14 10.3 °F 2.1 °F 30.14 in West 8.0 mph 13.0 mph 69% 0.00 in 429.00 W/m2
10:19 10.8 °F 2.3 °F 30.14 in West 8.0 mph 10.0 mph 68% 0.00 in 464.00 W/m2
10:24 11.3 °F 2.8 °F 30.14 in West 9.0 mph 14.0 mph 68% 0.00 in 334.00 W/m2
10:29 11.7 °F 3.2 °F 30.13 in West 11.0 mph 14.0 mph 68% 0.00 in 483.00 W/m2
10:34 11.9 °F 3.4 °F 30.13 in West 10.0 mph 14.0 mph 68% 0.00 in 499.00 W/m2
10:39 12.1 °F 3.2 °F 30.13 in WSW 9.0 mph 14.0 mph 67% 0.00 in 504.00 W/m2
10:44 12.2 °F 3.3 °F 30.13 in WSW 12.0 mph 13.0 mph 67% 0.00 in 461.00 W/m2
10:49 12.4 °F 3.2 °F 30.13 in West 9.0 mph 13.0 mph 66% 0.00 in 494.00 W/m2
10:54 12.3 °F 3.4 °F 30.13 in West 11.0 mph 12.0 mph 67% 0.00 in 334.00 W/m2
10:59 12.6 °F 3.4 °F 30.13 in West 9.0 mph 13.0 mph 66% 0.00 in 571.00 W/m2
11:04 12.8 °F 3.9 °F 30.13 in West 9.0 mph 14.0 mph 67% 0.00 in 543.00 W/m2
11:09 12.8 °F 3.9 °F 30.13 in West 9.0 mph 14.0 mph 67% 0.00 in 564.00 W/m2
11:14 13.2 °F 4.3 °F 30.13 in WSW 9.0 mph 13.0 mph 67% 0.00 in 605.00 W/m2
11:19 13.5 °F 4.6 °F 30.13 in WSW 11.0 mph 13.0 mph 67% 0.00 in 473.00 W/m2
11:24 13.9 °F 5.3 °F 30.12 in West 12.0 mph 13.0 mph 68% 0.00 in 601.00 W/m2
11:29 14.0 °F 4.7 °F 30.12 in West 10.0 mph 12.0 mph 66% 0.00 in 480.00 W/m2
11:34 14.1 °F 5.1 °F 30.12 in WSW 8.0 mph 12.0 mph 67% 0.00 in 635.00 W/m2
11:39 14.6 °F 6.0 °F 30.12 in WNW 8.0 mph 11.0 mph 68% 0.00 in 861.00 W/m2
11:44 14.8 °F 5.8 °F 30.12 in West 8.0 mph 10.0 mph 67% 0.00 in 563.00 W/m2
11:49 14.7 °F 5.7 °F 30.12 in West 8.0 mph 10.0 mph 67% 0.00 in 543.00 W/m2
11:54 14.8 °F 5.5 °F 30.12 in West 10.0 mph 13.0 mph 66% 0.00 in 599.00 W/m2
11:59 14.7 °F 5.1 °F 30.12 in West 12.0 mph 14.0 mph 65% 0.00 in 624.00 W/m2
12:04 14.7 °F 5.1 °F 30.12 in West 11.0 mph 14.0 mph 65% 0.00 in 577.00 W/m2
12:09 14.8 °F 5.2 °F 30.12 in West 11.0 mph 14.0 mph 65% 0.00 in 547.00 W/m2
12:14 15.1 °F 5.4 °F 30.11 in West 11.0 mph 13.0 mph 65% 0.00 in 701.00 W/m2
12:19 15.3 °F 5.6 °F 30.11 in West 9.0 mph 13.0 mph 65% 0.00 in 640.00 W/m2
12:24 15.7 °F 6.3 °F 30.11 in West 13.0 mph 15.0 mph 66% 0.00 in 761.00 W/m2
12:29 16.1 °F 6.7 °F 30.11 in West 12.0 mph 16.0 mph 66% 0.00 in 705.00 W/m2
12:34 16.1 °F 6.4 °F 30.12 in West 12.0 mph 16.0 mph 65% 0.00 in 628.00 W/m2
12:39 16.1 °F 6.7 °F 30.11 in WNW 9.0 mph 15.0 mph 66% 0.00 in 640.00 W/m2
12:44 16.3 °F 7.3 °F 30.11 in West 8.0 mph 13.0 mph 67% 0.00 in 661.00 W/m2
12:49 16.5 °F 7.4 °F 30.11 in West 10.0 mph 12.0 mph 67% 0.00 in 654.00 W/m2
12:54 16.6 °F 7.2 °F 30.10 in West 12.0 mph 13.0 mph 66% 0.00 in 645.00 W/m2
12:59 16.7 °F 7.6 °F 30.10 in West 10.0 mph 14.0 mph 67% 0.00 in 636.00 W/m2
13:04 16.6 °F 7.5 °F 30.09 in West 10.0 mph 14.0 mph 67% 0.00 in 640.00 W/m2
13:09 16.9 °F 8.2 °F 30.09 in West 11.0 mph 13.0 mph 68% 0.00 in 631.00 W/m2
13:14 16.9 °F 7.2 °F 30.09 in West 13.0 mph 17.0 mph 65% 0.00 in 635.00 W/m2
13:19 16.9 °F 7.2 °F 30.09 in WNW 11.0 mph 17.0 mph 65% 0.00 in 626.00 W/m2
13:24 16.9 °F 7.5 °F 30.09 in West 11.0 mph 15.0 mph 66% 0.00 in 647.00 W/m2
13:29 17.1 °F 8.0 °F 30.09 in WNW 8.0 mph 15.0 mph 67% 0.00 in 663.00 W/m2
13:34 17.3 °F 7.9 °F 30.09 in West 9.0 mph 14.0 mph 66% 0.00 in 642.00 W/m2
13:39 17.6 °F 8.8 °F 30.09 in WNW 10.0 mph 14.0 mph 68% 0.00 in 636.00 W/m2
13:44 17.7 °F 8.6 °F 30.09 in West 9.0 mph 13.0 mph 67% 0.00 in 638.00 W/m2
13:49 17.6 °F 8.5 °F 30.09 in West 9.0 mph 13.0 mph 67% 0.00 in 638.00 W/m2
13:54 17.8 °F 9.0 °F 30.08 in West 10.0 mph 12.0 mph 68% 0.00 in 545.00 W/m2
13:59 17.6 °F 8.8 °F 30.08 in WNW 8.0 mph 12.0 mph 68% 0.00 in 584.00 W/m2
14:04 17.7 °F 8.9 °F 30.08 in West 9.0 mph 12.0 mph 68% 0.00 in 610.00 W/m2
14:09 17.7 °F 8.9 °F 30.08 in West 8.0 mph 11.0 mph 68% 0.00 in 599.00 W/m2
14:14 17.9 °F 9.4 °F 30.07 in WNW 11.0 mph 13.0 mph 69% 0.00 in 598.00 W/m2
14:19 17.8 °F 9.3 °F 30.07 in West 11.0 mph 13.0 mph 69% 0.00 in 587.00 W/m2
14:24 17.9 °F 9.4 °F 30.08 in West 11.0 mph 13.0 mph 69% 0.00 in 533.00 W/m2
14:29 18.2 °F 10.1 °F 30.07 in West 8.0 mph 13.0 mph 70% 0.00 in 635.00 W/m2
14:34 18.2 °F 9.7 °F 30.08 in West 6.0 mph 11.0 mph 69% 0.00 in 526.00 W/m2
14:39 18.4 °F 10.2 °F 30.07 in West 6.0 mph 11.0 mph 70% 0.00 in 534.00 W/m2
14:44 18.5 °F 10.0 °F 30.07 in West 7.0 mph 10.0 mph 69% 0.00 in 548.00 W/m2
14:49 18.4 °F 9.9 °F 30.07 in West 10.0 mph 11.0 mph 69% 0.00 in 536.00 W/m2
14:54 18.4 °F 10.2 °F 30.07 in West 10.0 mph 12.0 mph 70% 0.00 in 497.00 W/m2
14:59 18.4 °F 9.9 °F 30.07 in West 7.0 mph 12.0 mph 69% 0.00 in 483.00 W/m2
15:04 18.5 °F 10.3 °F 30.07 in West 8.0 mph 11.0 mph 70% 0.00 in 475.00 W/m2
15:09 18.5 °F 10.3 °F 30.07 in WNW 7.0 mph 11.0 mph 70% 0.00 in 466.00 W/m2
15:14 18.7 °F 10.5 °F 30.07 in WSW 8.0 mph 11.0 mph 70% 0.00 in 468.00 W/m2
15:19 18.9 °F 10.7 °F 30.08 in West 8.0 mph 10.0 mph 70% 0.00 in 454.00 W/m2
15:24 18.9 °F 10.4 °F 30.07 in West 10.0 mph 11.0 mph 69% 0.00 in 439.00 W/m2
15:29 19.0 °F 10.8 °F 30.07 in West 5.0 mph 11.0 mph 70% 0.00 in 464.00 W/m2
15:34 19.1 °F 10.9 °F 30.07 in West 6.0 mph 10.0 mph 70% 0.00 in 218.00 W/m2
15:39 19.0 °F 10.8 °F 30.07 in West 6.0 mph 11.0 mph 70% 0.00 in 329.00 W/m2
15:44 19.0 °F 10.8 °F 30.07 in WNW 6.0 mph 11.0 mph 70% 0.00 in 362.00 W/m2
15:49 19.3 °F 11.1 °F 30.07 in WNW 9.0 mph 11.0 mph 70% 0.00 in 469.00 W/m2
15:54 19.7 °F 11.5 °F 30.07 in West 8.0 mph 11.0 mph 70% 0.00 in 468.00 W/m2
15:59 19.6 °F 11.1 °F 30.07 in West 8.0 mph 10.0 mph 69% 0.00 in 378.00 W/m2
16:04 19.6 °F 11.1 °F 30.07 in West 5.0 mph 10.0 mph 69% 0.00 in 455.00 W/m2
16:09 19.9 °F 11.4 °F 30.06 in West 4.0 mph 9.0 mph 69% 0.00 in 214.00 W/m2
16:14 19.9 °F 11.4 °F 30.06 in WSW 3.0 mph 8.0 mph 69% 0.00 in 290.00 W/m2
16:19 20.0 °F 11.1 °F 30.06 in WNW 4.0 mph 6.0 mph 68% 0.00 in 332.00 W/m2
16:24 20.0 °F 11.1 °F 30.06 in West 4.0 mph 6.0 mph 68% 0.00 in 350.00 W/m2
16:29 20.1 °F 11.2 °F 30.06 in West 3.0 mph 6.0 mph 68% 0.00 in 422.00 W/m2
16:34 20.5 °F 11.6 °F 30.06 in West 2.0 mph 5.0 mph 68% 0.00 in 357.00 W/m2
16:39 20.7 °F 11.5 °F 30.06 in SW 5.0 mph 5.0 mph 67% 0.00 in 274.00 W/m2
16:44 20.6 °F 11.4 °F 30.06 in WSW 4.0 mph 6.0 mph 67% 0.00 in 193.00 W/m2
16:49 19.9 °F 11.4 °F 30.06 in West 6.0 mph 8.0 mph 69% 0.00 in 165.00 W/m2
16:54 19.5 °F 11.3 °F 30.06 in West 6.0 mph 8.0 mph 70% 0.00 in 148.00 W/m2
16:59 19.3 °F 11.4 °F 30.07 in West 4.0 mph 8.0 mph 71% 0.00 in 137.00 W/m2
17:04 19.4 °F 11.5 °F 30.06 in SW 3.0 mph 7.0 mph 71% 0.00 in 148.00 W/m2
17:09 19.5 °F 11.6 °F 30.07 in West 3.0 mph 6.0 mph 71% 0.00 in 116.00 W/m2
17:14 19.4 °F 11.5 °F 30.06 in WSW 5.0 mph 6.0 mph 71% 0.00 in 97.00 W/m2
17:19 19.3 °F 11.7 °F 30.07 in West 3.0 mph 6.0 mph 72% 0.00 in 98.00 W/m2
17:24 19.2 °F 11.6 °F 30.06 in West 3.0 mph 5.0 mph 72% 0.00 in 77.00 W/m2
17:29 18.9 °F 11.0 °F 30.06 in West 2.0 mph 4.0 mph 71% 0.00 in 63.00 W/m2
17:34 18.7 °F 10.9 °F 30.06 in West 3.0 mph 4.0 mph 71% 0.00 in 42.00 W/m2
17:39 18.7 °F 10.9 °F 30.06 in WNW 1.0 mph 3.0 mph 71% 0.00 in 72.00 W/m2
17:44 19.0 °F 11.1 °F 30.06 in Calm   3.0 mph 71% 0.00 in 56.00 W/m2
17:49 19.4 °F 11.5 °F 30.06 in Calm   3.0 mph 71% 0.00 in 42.00 W/m2
17:54 19.9 °F 11.7 °F 30.06 in Calm   1.0 mph 70% 0.00 in 32.00 W/m2
17:59 19.8 °F 10.9 °F 30.06 in West 1.0 mph 2.0 mph 68% 0.00 in 25.00 W/m2
18:04 19.5 °F 10.6 °F 30.06 in WNW 1.0 mph 3.0 mph 68% 0.00 in 19.00 W/m2
18:09 19.3 °F 10.5 °F 30.06 in Calm   3.0 mph 68% 0.00 in 14.00 W/m2
18:14 18.6 °F 9.8 °F 30.06 in Calm   2.0 mph 68% 0.00 in 12.00 W/m2
18:19 17.9 °F 9.4 °F 30.06 in Calm   1.0 mph 69% 0.00 in 9.00 W/m2
18:24 17.4 °F 9.6 °F 30.06 in WNW 1.0 mph 1.0 mph 71% 0.00 in 5.00 W/m2
18:29 17.0 °F 9.2 °F 30.06 in WNW 1.0 mph 1.0 mph 71% 0.00 in 5.00 W/m2
18:34 16.5 °F 9.0 °F 30.06 in Calm   1.0 mph 72% 0.00 in 0.00 W/m2
18:39 15.9 °F 8.8 °F 30.06 in Calm   1.0 mph 73% 0.00 in 0.00 W/m2
18:44 15.7 °F 9.2 °F 30.06 in Calm     75% 0.00 in 0.00 W/m2
18:49 15.4 °F 8.9 °F 30.07 in Calm     75% 0.00 in 0.00 W/m2
18:54 15.2 °F 9.0 °F 30.07 in Calm     76% 0.00 in 0.00 W/m2
18:59 15.0 °F 8.8 °F 30.07 in WNW 3.0 mph 3.0 mph 76% 0.00 in 0.00 W/m2
19:04 14.8 °F 8.6 °F 30.07 in WNW 2.0 mph 4.0 mph 76% 0.00 in 0.00 W/m2
19:09 14.6 °F 8.4 °F 30.07 in WNW 2.0 mph 4.0 mph 76% 0.00 in 0.00 W/m2
19:14 14.3 °F 8.1 °F 30.07 in ENE 3.0 mph 5.0 mph 76% 0.00 in 0.00 W/m2
19:19 13.5 °F 7.3 °F 30.07 in ENE 3.0 mph 5.0 mph 76% 0.00 in 0.00 W/m2
19:24 13.7 °F 8.4 °F 30.07 in ENE 2.0 mph 5.0 mph 79% 0.00 in 0.00 W/m2
19:29 14.1 °F 8.8 °F 30.07 in ENE 2.0 mph 4.0 mph 79% 0.00 in 0.00 W/m2
19:34 13.8 °F 7.9 °F 30.07 in ENE 2.0 mph 4.0 mph 77% 0.00 in 0.00 W/m2
19:39 12.8 °F 6.9 °F 30.07 in ENE 2.0 mph 4.0 mph 77% 0.00 in 0.00 W/m2
19:44 13.0 °F 8.0 °F 30.07 in ENE 3.0 mph 4.0 mph 80% 0.00 in 0.00 W/m2
19:49 13.3 °F 8.3 °F 30.07 in ENE 3.0 mph 4.0 mph 80% 0.00 in 0.00 W/m2
19:54 13.8 °F 8.8 °F 30.07 in ENE 2.0 mph 4.0 mph 80% 0.00 in 0.00 W/m2
19:59 14.4 °F 9.4 °F 30.07 in ENE 2.0 mph 3.0 mph 80% 0.00 in 0.00 W/m2
20:04 14.8 °F 9.7 °F 30.08 in Calm   2.0 mph 80% 0.00 in 0.00 W/m2
20:09 14.9 °F 9.6 °F 30.08 in Calm   2.0 mph 79% 0.00 in 0.00 W/m2
20:14 15.0 °F 9.7 °F 30.07 in Calm     79% 0.00 in 0.00 W/m2
20:19 14.9 °F 9.3 °F 30.07 in Calm   1.0 mph 78% 0.00 in 0.00 W/m2
20:24 14.6 °F 9.0 °F 30.08 in SE 2.0 mph 3.0 mph 78% 0.00 in 0.00 W/m2
20:29 13.4 °F 7.5 °F 30.07 in East 7.0 mph 7.0 mph 77% 0.00 in 0.00 W/m2
20:34 11.8 °F 6.0 °F 30.07 in ENE 5.0 mph 8.0 mph 77% 0.00 in 0.00 W/m2
20:39 11.3 °F 6.1 °F 30.07 in East 5.0 mph 8.0 mph 79% 0.00 in 0.00 W/m2
20:44 10.4 °F 4.9 °F 30.07 in East 5.0 mph 7.0 mph 78% 0.00 in 0.00 W/m2
20:49 10.7 °F 6.3 °F 30.07 in East 5.0 mph 7.0 mph 82% 0.00 in 0.00 W/m2
20:54 10.1 °F 4.9 °F 30.07 in ESE 4.0 mph 7.0 mph 79% 0.00 in 0.00 W/m2
20:59 9.1 °F 4.2 °F 30.07 in SE 4.0 mph 6.0 mph 80% 0.00 in 0.00 W/m2
21:04 9.3 °F 7.4 °F 30.07 in SE 4.0 mph 6.0 mph 92% 0.00 in 0.00 W/m2
21:09 9.7 °F 5.8 °F 30.07 in ESE 3.0 mph 5.0 mph 84% 0.00 in 0.00 W/m2
21:14 9.7 °F 5.6 °F 30.07 in ESE 4.0 mph 5.0 mph 83% 0.00 in 0.00 W/m2
21:19 9.6 °F 5.5 °F 30.07 in East 5.0 mph 5.0 mph 83% 0.00 in 0.00 W/m2
21:24 9.8 °F 5.9 °F 30.07 in East 3.0 mph 5.0 mph 84% 0.00 in 0.00 W/m2
21:29 9.6 °F 5.5 °F 30.07 in ESE 3.0 mph 5.0 mph 83% 0.00 in 0.00 W/m2
21:34 9.8 °F 5.9 °F 30.08 in ESE 3.0 mph 5.0 mph 84% 0.00 in 0.00 W/m2
21:39 10.1 °F 6.2 °F 30.08 in ESE 3.0 mph 4.0 mph 84% 0.00 in 0.00 W/m2
21:44 10.4 °F 6.8 °F 30.08 in ESE 3.0 mph 4.0 mph 85% 0.00 in 0.00 W/m2
21:49 10.2 °F 6.3 °F 30.08 in ESE 3.0 mph 4.0 mph 84% 0.00 in 0.00 W/m2
21:54 10.1 °F 6.2 °F 30.09 in East 2.0 mph 5.0 mph 84% 0.00 in 0.00 W/m2
21:59 10.3 °F 6.4 °F 30.09 in East 1.0 mph 5.0 mph 84% 0.00 in 0.00 W/m2
22:04 10.0 °F 6.1 °F 30.08 in East 1.0 mph 3.0 mph 84% 0.00 in 0.00 W/m2
22:09 9.8 °F 5.9 °F 30.08 in ENE 3.0 mph 4.0 mph 84% 0.00 in 0.00 W/m2
22:14 10.0 °F 6.4 °F 30.07 in ENE 4.0 mph 4.0 mph 85% 0.00 in 0.00 W/m2
22:19 9.6 °F 5.7 °F 30.07 in East 3.0 mph 5.0 mph 84% 0.00 in 0.00 W/m2
22:24 9.8 °F 6.2 °F 30.06 in East 3.0 mph 5.0 mph 85% 0.00 in 0.00 W/m2
22:29 10.3 °F 6.7 °F 30.06 in East 5.0 mph 5.0 mph 85% 0.00 in 0.00 W/m2
22:34 10.6 °F 7.0 °F 30.06 in East 3.0 mph 5.0 mph 85% 0.00 in 0.00 W/m2
22:39 10.6 °F 6.7 °F 30.06 in East 2.0 mph 5.0 mph 84% 0.00 in 0.00 W/m2
22:44 10.0 °F 5.9 °F 30.07 in SE 3.0 mph 4.0 mph 83% 0.00 in 0.00 W/m2
22:49 9.4 °F 5.3 °F 30.06 in ESE 2.0 mph 4.0 mph 83% 0.00 in 0.00 W/m2
22:54 9.4 °F 5.5 °F 30.06 in SE 3.0 mph 4.0 mph 84% 0.00 in 0.00 W/m2
22:59 9.4 °F 5.5 °F 30.06 in Calm   3.0 mph 84% 0.00 in 0.00 W/m2
23:04 9.8 °F 6.2 °F 30.06 in SE 1.0 mph 3.0 mph 85% 0.00 in 0.00 W/m2
23:09 10.0 °F 6.4 °F 30.06 in SE 2.0 mph 2.0 mph 85% 0.00 in 0.00 W/m2
23:14 10.3 °F 6.7 °F 30.06 in SE 1.0 mph 2.0 mph 85% 0.00 in 0.00 W/m2
23:19 10.4 °F 6.8 °F 30.05 in SE 1.0 mph 2.0 mph 85% 0.00 in 0.00 W/m2
23:24 10.7 °F 7.1 °F 30.05 in SE 1.0 mph 3.0 mph 85% 0.00 in 0.00 W/m2
23:29 10.9 °F 7.3 °F 30.05 in Calm   3.0 mph 85% 0.00 in 0.00 W/m2
23:34 11.4 °F 7.8 °F 30.05 in SE 1.0 mph 2.0 mph 85% 0.00 in 0.00 W/m2
23:39 11.6 °F 7.7 °F 30.05 in SE 1.0 mph 2.0 mph 84% 0.00 in 0.00 W/m2
23:44 11.6 °F 7.7 °F 30.05 in SE 2.0 mph 3.0 mph 84% 0.00 in 0.00 W/m2
23:49 11.1 °F 6.9 °F 30.05 in SE 2.0 mph 3.0 mph 83% 0.00 in 0.00 W/m2
23:54 10.8 °F 6.7 °F 30.04 in SE 3.0 mph 3.0 mph 83% 0.00 in 0.00 W/m2
23:59 10.6 °F 6.5 °F 30.05 in SE 3.0 mph 4.0 mph 83% 0.00 in 0.00 W/m2
Bismarck, North Dakota, USA
Compliments of Weather Underground - 4 mb